Terminal Aerodrome Forecast
Issued by NWS

Home | Current Version | Previous Version | Text Only | Print | Product List | Glossary On
Versions: 1 2 3 4 5 6 7 8 9 10 11 12 13 14
000
FTUS45 KPIH 051729
TAFSUN
TAF
KSUN 051729Z 0518/0618 14009KT P6SM SCT060 BKN100
     FM052200 22010G18KT P6SM SCT060 BKN100
     FM060200 30007KT P6SM SCT100 SCT200
     FM061700 15008KT P6SM SCT080 BKN200=

USA.gov is the U.S. government's official web portal to all federal, state and local government web resources and services.